Waco, Texas
Current Conditions -  °F | °C
As of 2:51 AM on Friday 24 Oct 2014 (Local Time) from KACT Reporting Station
Broken Clouds Broken Clouds  
Wind Chill: 65°   Ceiling: 8500
Heat Index: 65°   Visibility: 10mi
Dew Point: 55°   Wind: 12mph
Humidity: 70%   Direction: 160°SSE
Pressure: 30.12"   Gusts: NA
Location:  31.57°N, 97.15°W
Report Text: KACT 240751Z 16010KT 10SM SCT070 BKN085 18/13 A3012 RMK AO2 SLP194 T01830128
Loading
Personal Weather Stations






























Interactive Weather Map New forecast layout! Learn more

10-Day Weather Forecast

Advertisements
Track Severe Weather on mobile